Greenslough, Ireland
Current Conditions -  °F | °C
As of 4:00 PM on Tuesday 21 Oct 2014 (Local Time) from EIDL Reporting Station
Scattered Clouds Scattered Clouds  
Wind Chill: 50°   Ceiling: Unl
Heat Index: 50°   Visibility: 6mi
Dew Point: 39°   Wind: 22mph
Humidity: 66%   Direction: 310°NW
Pressure: 30.06"   Gusts: 37mph
Location:  55.12°N, 7.9°W
Report Text: EIDL 211600Z 31019G32KT 9999 FEW045 SCT050 10/04 Q1018
Loading
Personal Weather Stations






























Interactive Weather Map New forecast layout! Learn more

10-Day Weather Forecast

Advertisements
Track Severe Weather on mobile